sensor_id;sensor_type;location;lat;lon;timestamp;P1;durP1;ratioP1;P2;durP2;ratioP2
12814;SDS011;6472;52.328;13.070;2023-04-24T00:02:16;5.40;;;2.80;;
12814;SDS011;6472;52.328;13.070;2023-04-24T00:04:45;4.90;;;3.47;;
12814;SDS011;6472;52.328;13.070;2023-04-24T00:07:14;5.10;;;3.63;;
12814;SDS011;6472;52.328;13.070;2023-04-24T00:09:43;6.73;;;3.57;;
12814;SDS011;6472;52.328;13.070;2023-04-24T00:12:11;6.00;;;3.10;;
12814;SDS011;6472;52.328;13.070;2023-04-24T00:14:39;9.03;;;3.40;;
12814;SDS011;6472;52.328;13.070;2023-04-24T00:17:07;3.70;;;2.97;;
12814;SDS011;6472;52.328;13.070;2023-04-24T00:19:35;4.63;;;3.03;;
12814;SDS011;6472;52.328;13.070;2023-04-24T00:22:03;3.73;;;3.00;;
12814;SDS011;6472;52.328;13.070;2023-04-24T00:24:32;5.23;;;3.33;;
12814;SDS011;6472;52.328;13.070;2023-04-24T00:27:00;3.03;;;2.73;;
12814;SDS011;6472;52.328;13.070;2023-04-24T00:29:28;7.43;;;3.43;;
12814;SDS011;6472;52.328;13.070;2023-04-24T00:31:57;3.30;;;3.00;;
12814;SDS011;6472;52.328;13.070;2023-04-24T00:34:25;4.03;;;3.10;;
12814;SDS011;6472;52.328;13.070;2023-04-24T00:36:53;5.07;;;3.53;;
12814;SDS011;6472;52.328;13.070;2023-04-24T00:39:21;7.80;;;3.97;;
12814;SDS011;6472;52.328;13.070;2023-04-24T00:41:51;3.90;;;3.20;;
12814;SDS011;6472;52.328;13.070;2023-04-24T00:44:19;4.27;;;3.13;;
12814;SDS011;6472;52.328;13.070;2023-04-24T00:46:47;4.90;;;3.37;;
12814;SDS011;6472;52.328;13.070;2023-04-24T00:49:20;4.33;;;3.10;;
12814;SDS011;6472;52.328;13.070;2023-04-24T00:51:49;5.77;;;3.60;;
12814;SDS011;6472;52.328;13.070;2023-04-24T00:54:17;4.37;;;3.40;;
12814;SDS011;6472;52.328;13.070;2023-04-24T00:56:46;3.80;;;3.03;;
12814;SDS011;6472;52.328;13.070;2023-04-24T00:59:16;4.03;;;3.10;;
12814;SDS011;6472;52.328;13.070;2023-04-24T01:01:44;4.03;;;3.60;;
12814;SDS011;6472;52.328;13.070;2023-04-24T01:04:12;3.43;;;3.13;;
12814;SDS011;6472;52.328;13.070;2023-04-24T01:06:41;3.37;;;2.63;;
12814;SDS011;6472;52.328;13.070;2023-04-24T01:09:11;2.97;;;2.67;;
12814;SDS011;6472;52.328;13.070;2023-04-24T01:11:40;16.50;;;3.03;;
12814;SDS011;6472;52.328;13.070;2023-04-24T01:14:09;3.20;;;2.70;;
12814;SDS011;6472;52.328;13.070;2023-04-24T01:16:41;3.67;;;3.17;;
12814;SDS011;6472;52.328;13.070;2023-04-24T01:19:09;3.97;;;3.20;;
12814;SDS011;6472;52.328;13.070;2023-04-24T01:21:37;5.50;;;3.13;;
12814;SDS011;6472;52.328;13.070;2023-04-24T01:24:07;4.00;;;3.60;;
12814;SDS011;6472;52.328;13.070;2023-04-24T01:26:35;8.67;;;2.73;;
12814;SDS011;6472;52.328;13.070;2023-04-24T01:29:03;3.03;;;2.73;;
12814;SDS011;6472;52.328;13.070;2023-04-24T01:31:31;3.10;;;2.70;;
12814;SDS011;6472;52.328;13.070;2023-04-24T01:34:00;3.73;;;2.93;;
12814;SDS011;6472;52.328;13.070;2023-04-24T01:36:28;5.23;;;3.00;;
12814;SDS011;6472;52.328;13.070;2023-04-24T01:38:57;5.00;;;2.60;;
12814;SDS011;6472;52.328;13.070;2023-04-24T01:41:28;7.37;;;3.60;;
12814;SDS011;6472;52.328;13.070;2023-04-24T01:43:56;3.87;;;2.87;;
12814;SDS011;6472;52.328;13.070;2023-04-24T01:46:25;3.30;;;3.00;;
12814;SDS011;6472;52.328;13.070;2023-04-24T01:48:53;3.07;;;2.67;;
12814;SDS011;6472;52.328;13.070;2023-04-24T01:51:22;4.27;;;3.40;;
12814;SDS011;6472;52.328;13.070;2023-04-24T01:53:50;4.10;;;3.37;;
12814;SDS011;6472;52.328;13.070;2023-04-24T01:56:19;5.47;;;3.03;;
12814;SDS011;6472;52.328;13.070;2023-04-24T01:58:50;3.50;;;3.17;;
12814;SDS011;6472;52.328;13.070;2023-04-24T02:01:20;3.80;;;3.10;;
12814;SDS011;6472;52.328;13.070;2023-04-24T02:03:49;22.30;;;3.30;;
12814;SDS011;6472;52.328;13.070;2023-04-24T02:06:17;4.57;;;3.20;;
12814;SDS011;6472;52.328;13.070;2023-04-24T02:08:45;3.70;;;3.23;;
12814;SDS011;6472;52.328;13.070;2023-04-24T02:11:13;8.13;;;2.97;;
12814;SDS011;6472;52.328;13.070;2023-04-24T02:13:41;4.00;;;3.27;;
12814;SDS011;6472;52.328;13.070;2023-04-24T02:16:11;3.43;;;3.03;;
12814;SDS011;6472;52.328;13.070;2023-04-24T02:18:39;4.30;;;3.13;;
12814;SDS011;6472;52.328;13.070;2023-04-24T02:21:07;3.90;;;3.13;;
12814;SDS011;6472;52.328;13.070;2023-04-24T02:23:35;3.87;;;2.97;;
12814;SDS011;6472;52.328;13.070;2023-04-24T02:26:03;5.77;;;3.00;;
12814;SDS011;6472;52.328;13.070;2023-04-24T02:28:31;4.37;;;3.20;;
12814;SDS011;6472;52.328;13.070;2023-04-24T02:30:59;5.47;;;3.10;;
12814;SDS011;6472;52.328;13.070;2023-04-24T02:33:28;4.20;;;2.93;;
12814;SDS011;6472;52.328;13.070;2023-04-24T02:35:56;4.47;;;3.10;;
12814;SDS011;6472;52.328;13.070;2023-04-24T02:38:24;4.90;;;3.30;;
12814;SDS011;6472;52.328;13.070;2023-04-24T02:40:52;3.47;;;2.87;;
12814;SDS011;6472;52.328;13.070;2023-04-24T02:43:20;3.90;;;3.30;;
12814;SDS011;6472;52.328;13.070;2023-04-24T02:45:48;3.70;;;3.30;;
12814;SDS011;6472;52.328;13.070;2023-04-24T02:48:16;4.23;;;3.60;;
12814;SDS011;6472;52.328;13.070;2023-04-24T02:50:46;3.57;;;2.77;;
12814;SDS011;6472;52.328;13.070;2023-04-24T02:53:14;4.60;;;2.97;;
12814;SDS011;6472;52.328;13.070;2023-04-24T02:55:42;4.33;;;3.33;;
12814;SDS011;6472;52.328;13.070;2023-04-24T02:58:10;4.83;;;3.43;;
12814;SDS011;6472;52.328;13.070;2023-04-24T03:00:39;3.50;;;2.87;;
12814;SDS011;6472;52.328;13.070;2023-04-24T03:03:07;3.30;;;3.00;;
12814;SDS011;6472;52.328;13.070;2023-04-24T03:05:35;6.53;;;3.93;;
12814;SDS011;6472;52.328;13.070;2023-04-24T03:08:04;3.90;;;3.07;;
12814;SDS011;6472;52.328;13.070;2023-04-24T03:10:32;5.40;;;2.90;;
12814;SDS011;6472;52.328;13.070;2023-04-24T03:13:00;3.93;;;3.37;;
12814;SDS011;6472;52.328;13.070;2023-04-24T03:15:28;4.03;;;3.57;;
12814;SDS011;6472;52.328;13.070;2023-04-24T03:17:56;3.30;;;2.93;;
12814;SDS011;6472;52.328;13.070;2023-04-24T03:20:24;4.37;;;3.60;;
12814;SDS011;6472;52.328;13.070;2023-04-24T03:22:52;4.60;;;3.40;;
12814;SDS011;6472;52.328;13.070;2023-04-24T03:25:21;5.70;;;3.37;;
12814;SDS011;6472;52.328;13.070;2023-04-24T03:27:49;4.03;;;3.00;;
12814;SDS011;6472;52.328;13.070;2023-04-24T03:30:17;3.23;;;2.80;;
12814;SDS011;6472;52.328;13.070;2023-04-24T03:32:45;6.10;;;3.73;;
12814;SDS011;6472;52.328;13.070;2023-04-24T03:35:13;3.70;;;3.23;;
12814;SDS011;6472;52.328;13.070;2023-04-24T03:37:41;3.53;;;3.23;;
12814;SDS011;6472;52.328;13.070;2023-04-24T03:40:09;6.43;;;3.33;;
12814;SDS011;6472;52.328;13.070;2023-04-24T03:42:39;5.63;;;3.47;;
12814;SDS011;6472;52.328;13.070;2023-04-24T03:45:07;3.33;;;2.73;;
12814;SDS011;6472;52.328;13.070;2023-04-24T03:47:36;6.90;;;4.43;;
12814;SDS011;6472;52.328;13.070;2023-04-24T03:50:04;4.23;;;2.87;;
12814;SDS011;6472;52.328;13.070;2023-04-24T03:52:33;5.37;;;3.17;;
12814;SDS011;6472;52.328;13.070;2023-04-24T03:55:01;3.43;;;3.07;;
12814;SDS011;6472;52.328;13.070;2023-04-24T03:57:29;8.40;;;3.27;;
12814;SDS011;6472;52.328;13.070;2023-04-24T03:59:58;5.37;;;3.67;;
12814;SDS011;6472;52.328;13.070;2023-04-24T04:02:30;4.13;;;3.67;;
12814;SDS011;6472;52.328;13.070;2023-04-24T04:04:58;7.93;;;3.73;;
12814;SDS011;6472;52.328;13.070;2023-04-24T04:07:26;4.03;;;3.10;;
12814;SDS011;6472;52.328;13.070;2023-04-24T04:09:56;4.90;;;3.60;;
12814;SDS011;6472;52.328;13.070;2023-04-24T04:12:23;9.67;;;3.13;;
12814;SDS011;6472;52.328;13.070;2023-04-24T04:14:51;3.97;;;3.07;;
12814;SDS011;6472;52.328;13.070;2023-04-24T04:17:21;4.10;;;2.80;;
12814;SDS011;6472;52.328;13.070;2023-04-24T04:19:49;2.67;;;2.37;;
12814;SDS011;6472;52.328;13.070;2023-04-24T04:22:16;4.47;;;3.23;;
12814;SDS011;6472;52.328;13.070;2023-04-24T04:24:44;2.93;;;2.73;;
12814;SDS011;6472;52.328;13.070;2023-04-24T04:27:13;4.33;;;3.20;;
12814;SDS011;6472;52.328;13.070;2023-04-24T04:29:42;4.10;;;3.10;;
12814;SDS011;6472;52.328;13.070;2023-04-24T04:32:11;3.57;;;3.27;;
12814;SDS011;6472;52.328;13.070;2023-04-24T04:34:40;4.33;;;3.60;;
12814;SDS011;6472;52.328;13.070;2023-04-24T04:37:09;4.47;;;3.00;;
12814;SDS011;6472;52.328;13.070;2023-04-24T04:39:37;5.37;;;3.13;;
12814;SDS011;6472;52.328;13.070;2023-04-24T04:42:05;6.30;;;3.20;;
12814;SDS011;6472;52.328;13.070;2023-04-24T04:44:33;3.90;;;3.23;;
12814;SDS011;6472;52.328;13.070;2023-04-24T04:47:02;3.43;;;3.10;;
12814;SDS011;6472;52.328;13.070;2023-04-24T04:49:31;2.83;;;2.63;;
12814;SDS011;6472;52.328;13.070;2023-04-24T04:52:01;3.60;;;2.83;;
12814;SDS011;6472;52.328;13.070;2023-04-24T04:54:29;3.93;;;2.70;;
12814;SDS011;6472;52.328;13.070;2023-04-24T04:56:57;7.67;;;3.10;;
12814;SDS011;6472;52.328;13.070;2023-04-24T04:59:29;3.93;;;2.20;;
12814;SDS011;6472;52.328;13.070;2023-04-24T05:01:57;2.50;;;2.00;;
12814;SDS011;6472;52.328;13.070;2023-04-24T05:04:25;6.03;;;2.20;;
12814;SDS011;6472;52.328;13.070;2023-04-24T05:06:54;2.63;;;2.07;;
12814;SDS011;6472;52.328;13.070;2023-04-24T05:09:23;3.23;;;2.53;;
12814;SDS011;6472;52.328;13.070;2023-04-24T05:11:53;3.73;;;2.33;;
12814;SDS011;6472;52.328;13.070;2023-04-24T05:14:21;2.80;;;2.30;;
12814;SDS011;6472;52.328;13.070;2023-04-24T05:16:49;2.60;;;1.87;;
12814;SDS011;6472;52.328;13.070;2023-04-24T05:19:17;5.07;;;2.10;;
12814;SDS011;6472;52.328;13.070;2023-04-24T05:21:45;6.17;;;1.97;;
12814;SDS011;6472;52.328;13.070;2023-04-24T05:24:13;3.07;;;2.40;;
12814;SDS011;6472;52.328;13.070;2023-04-24T05:26:42;6.60;;;2.20;;
12814;SDS011;6472;52.328;13.070;2023-04-24T05:29:10;3.03;;;2.13;;
12814;SDS011;6472;52.328;13.070;2023-04-24T05:31:39;2.20;;;1.70;;
12814;SDS011;6472;52.328;13.070;2023-04-24T05:34:07;2.20;;;1.50;;
12814;SDS011;6472;52.328;13.070;2023-04-24T05:36:35;1.43;;;1.27;;
12814;SDS011;6472;52.328;13.070;2023-04-24T05:39:03;1.60;;;1.50;;
12814;SDS011;6472;52.328;13.070;2023-04-24T05:41:33;2.03;;;1.63;;
12814;SDS011;6472;52.328;13.070;2023-04-24T05:44:02;2.20;;;1.70;;
12814;SDS011;6472;52.328;13.070;2023-04-24T05:46:30;7.30;;;1.83;;
12814;SDS011;6472;52.328;13.070;2023-04-24T05:48:58;2.97;;;1.83;;
12814;SDS011;6472;52.328;13.070;2023-04-24T05:51:26;1.43;;;1.30;;
12814;SDS011;6472;52.328;13.070;2023-04-24T05:53:54;5.57;;;1.20;;
12814;SDS011;6472;52.328;13.070;2023-04-24T05:56:22;6.97;;;1.43;;
12814;SDS011;6472;52.328;13.070;2023-04-24T05:58:51;1.07;;;1.00;;
12814;SDS011;6472;52.328;13.070;2023-04-24T06:01:20;2.87;;;1.33;;
12814;SDS011;6472;52.328;13.070;2023-04-24T06:03:48;1.00;;;1.00;;
12814;SDS011;6472;52.328;13.070;2023-04-24T06:06:16;0.70;;;0.70;;
12814;SDS011;6472;52.328;13.070;2023-04-24T06:08:45;2.70;;;0.80;;
12814;SDS011;6472;52.328;13.070;2023-04-24T06:11:13;1.20;;;1.10;;
12814;SDS011;6472;52.328;13.070;2023-04-24T06:13:41;1.48;;;0.57;;
12814;SDS011;6472;52.328;13.070;2023-04-24T06:16:09;1.30;;;1.30;;
12814;SDS011;6472;52.328;13.070;2023-04-24T06:18:39;0.95;;;0.70;;
12814;SDS011;6472;52.328;13.070;2023-04-24T06:21:07;1.45;;;0.85;;
12814;SDS011;6472;52.328;13.070;2023-04-24T06:23:35;2.00;;;0.65;;
12814;SDS011;6472;52.328;13.070;2023-04-24T06:26:02;2.42;;;0.70;;
12814;SDS011;6472;52.328;13.070;2023-04-24T06:28:31;6.68;;;0.60;;
12814;SDS011;6472;52.328;13.070;2023-04-24T06:30:59;1.13;;;0.50;;
12814;SDS011;6472;52.328;13.070;2023-04-24T06:33:27;0.90;;;0.90;;
12814;SDS011;6472;52.328;13.070;2023-04-24T06:35:56;0.88;;;0.43;;
12814;SDS011;6472;52.328;13.070;2023-04-24T06:38:24;0.40;;;0.40;;
12814;SDS011;6472;52.328;13.070;2023-04-24T06:40:52;0.75;;;0.75;;
12814;SDS011;6472;52.328;13.070;2023-04-24T06:43:20;2.58;;;0.77;;
12814;SDS011;6472;52.328;13.070;2023-04-24T06:45:48;0.88;;;0.50;;
12814;SDS011;6472;52.328;13.070;2023-04-24T06:48:17;0.57;;;0.57;;
12814;SDS011;6472;52.328;13.070;2023-04-24T06:50:45;1.05;;;0.60;;
12814;SDS011;6472;52.328;13.070;2023-04-24T06:53:15;0.73;;;0.57;;
12814;SDS011;6472;52.328;13.070;2023-04-24T06:55:43;3.30;;;0.77;;
12814;SDS011;6472;52.328;13.070;2023-04-24T06:58:12;0.60;;;0.50;;
12814;SDS011;6472;52.328;13.070;2023-04-24T07:00:42;0.68;;;0.68;;
12814;SDS011;6472;52.328;13.070;2023-04-24T07:03:10;1.45;;;0.50;;
12814;SDS011;6472;52.328;13.070;2023-04-24T07:05:38;0.45;;;0.45;;
12814;SDS011;6472;52.328;13.070;2023-04-24T07:08:08;0.50;;;0.50;;
12814;SDS011;6472;52.328;13.070;2023-04-24T07:10:39;0.70;;;0.70;;
12814;SDS011;6472;52.328;13.070;2023-04-24T07:13:07;0.60;;;0.60;;
12814;SDS011;6472;52.328;13.070;2023-04-24T07:15:35;0.60;;;0.60;;
12814;SDS011;6472;52.328;13.070;2023-04-24T07:18:03;4.30;;;0.60;;
12814;SDS011;6472;52.328;13.070;2023-04-24T07:20:31;0.70;;;0.50;;
12814;SDS011;6472;52.328;13.070;2023-04-24T07:23:00;1.08;;;0.70;;
12814;SDS011;6472;52.328;13.070;2023-04-24T07:25:29;0.55;;;0.55;;
12814;SDS011;6472;52.328;13.070;2023-04-24T07:27:59;2.72;;;0.77;;
12814;SDS011;6472;52.328;13.070;2023-04-24T07:30:27;0.57;;;0.47;;
12814;SDS011;6472;52.328;13.070;2023-04-24T07:32:55;1.38;;;0.40;;
12814;SDS011;6472;52.328;13.070;2023-04-24T07:35:25;2.75;;;0.30;;
12814;SDS011;6472;52.328;13.070;2023-04-24T07:37:54;0.50;;;0.50;;
12814;SDS011;6472;52.328;13.070;2023-04-24T07:40:22;3.10;;;0.57;;
12814;SDS011;6472;52.328;13.070;2023-04-24T07:42:50;1.20;;;1.02;;
12814;SDS011;6472;52.328;13.070;2023-04-24T07:45:20;0.40;;;0.40;;
12814;SDS011;6472;52.328;13.070;2023-04-24T07:47:49;1.33;;;0.70;;
12814;SDS011;6472;52.328;13.070;2023-04-24T07:50:18;1.50;;;0.57;;
12814;SDS011;6472;52.328;13.070;2023-04-24T07:52:46;0.50;;;0.50;;
12814;SDS011;6472;52.328;13.070;2023-04-24T07:55:18;0.47;;;0.47;;
12814;SDS011;6472;52.328;13.070;2023-04-24T07:57:51;0.50;;;0.50;;
12814;SDS011;6472;52.328;13.070;2023-04-24T08:00:20;0.60;;;0.60;;
12814;SDS011;6472;52.328;13.070;2023-04-24T08:02:48;0.52;;;0.52;;
12814;SDS011;6472;52.328;13.070;2023-04-24T08:05:16;0.52;;;0.52;;
12814;SDS011;6472;52.328;13.070;2023-04-24T08:07:45;0.80;;;0.80;;
12814;SDS011;6472;52.328;13.070;2023-04-24T08:10:14;0.60;;;0.60;;
12814;SDS011;6472;52.328;13.070;2023-04-24T08:12:42;0.57;;;0.52;;
12814;SDS011;6472;52.328;13.070;2023-04-24T08:15:10;1.38;;;0.60;;
12814;SDS011;6472;52.328;13.070;2023-04-24T08:17:57;0.57;;;0.52;;
12814;SDS011;6472;52.328;13.070;2023-04-24T08:20:55;0.47;;;0.47;;
12814;SDS011;6472;52.328;13.070;2023-04-24T08:23:27;0.40;;;0.40;;
12814;SDS011;6472;52.328;13.070;2023-04-24T08:25:56;0.60;;;0.60;;
12814;SDS011;6472;52.328;13.070;2023-04-24T08:28:24;0.32;;;0.32;;
12814;SDS011;6472;52.328;13.070;2023-04-24T08:30:52;1.00;;;0.85;;
12814;SDS011;6472;52.328;13.070;2023-04-24T08:33:22;0.73;;;0.63;;
12814;SDS011;6472;52.328;13.070;2023-04-24T08:35:50;0.70;;;0.50;;
12814;SDS011;6472;52.328;13.070;2023-04-24T08:38:19;0.40;;;0.40;;
12814;SDS011;6472;52.328;13.070;2023-04-24T08:40:47;1.00;;;0.55;;
12814;SDS011;6472;52.328;13.070;2023-04-24T08:43:16;0.40;;;0.40;;
12814;SDS011;6472;52.328;13.070;2023-04-24T08:45:44;0.90;;;0.70;;
12814;SDS011;6472;52.328;13.070;2023-04-24T08:48:12;1.85;;;0.35;;
12814;SDS011;6472;52.328;13.070;2023-04-24T08:50:57;7.43;;;1.23;;
12814;SDS011;6472;52.328;13.070;2023-04-24T08:53:26;7.65;;;1.23;;
12814;SDS011;6472;52.328;13.070;2023-04-24T08:55:55;3.70;;;1.08;;
12814;SDS011;6472;52.328;13.070;2023-04-24T08:58:24;2.63;;;0.50;;
12814;SDS011;6472;52.328;13.070;2023-04-24T09:00:53;0.60;;;0.60;;
12814;SDS011;6472;52.328;13.070;2023-04-24T09:03:22;0.93;;;0.73;;
12814;SDS011;6472;52.328;13.070;2023-04-24T09:05:51;0.80;;;0.50;;
12814;SDS011;6472;52.328;13.070;2023-04-24T09:08:23;3.58;;;0.82;;
12814;SDS011;6472;52.328;13.070;2023-04-24T09:10:52;1.17;;;0.43;;
12814;SDS011;6472;52.328;13.070;2023-04-24T09:13:20;0.30;;;0.25;;
12814;SDS011;6472;52.328;13.070;2023-04-24T09:15:48;0.47;;;0.47;;
12814;SDS011;6472;52.328;13.070;2023-04-24T09:18:17;3.30;;;0.55;;
12814;SDS011;6472;52.328;13.070;2023-04-24T09:20:59;0.30;;;0.30;;
12814;SDS011;6472;52.328;13.070;2023-04-24T09:23:30;0.35;;;0.35;;
12814;SDS011;6472;52.328;13.070;2023-04-24T09:25:59;1.02;;;0.57;;
12814;SDS011;6472;52.328;13.070;2023-04-24T09:28:29;3.70;;;0.40;;
12814;SDS011;6472;52.328;13.070;2023-04-24T09:31:02;0.80;;;0.70;;
12814;SDS011;6472;52.328;13.070;2023-04-24T09:33:31;1.10;;;0.52;;
12814;SDS011;6472;52.328;13.070;2023-04-24T09:35:59;0.65;;;0.65;;
12814;SDS011;6472;52.328;13.070;2023-04-24T09:38:31;13.35;;;1.75;;
12814;SDS011;6472;52.328;13.070;2023-04-24T09:41:01;0.55;;;0.55;;
12814;SDS011;6472;52.328;13.070;2023-04-24T09:43:30;1.10;;;0.55;;
12814;SDS011;6472;52.328;13.070;2023-04-24T09:45:59;0.90;;;0.55;;
12814;SDS011;6472;52.328;13.070;2023-04-24T09:48:34;0.65;;;0.63;;
12814;SDS011;6472;52.328;13.070;2023-04-24T09:51:03;2.17;;;0.47;;
12814;SDS011;6472;52.328;13.070;2023-04-24T09:53:34;0.50;;;0.50;;
12814;SDS011;6472;52.328;13.070;2023-04-24T09:56:03;1.17;;;0.60;;
12814;SDS011;6472;52.328;13.070;2023-04-24T09:58:34;1.13;;;0.98;;
12814;SDS011;6472;52.328;13.070;2023-04-24T10:01:03;0.40;;;0.40;;
12814;SDS011;6472;52.328;13.070;2023-04-24T10:03:32;0.70;;;0.70;;
12814;SDS011;6472;52.328;13.070;2023-04-24T10:06:01;0.98;;;0.52;;
12814;SDS011;6472;52.328;13.070;2023-04-24T10:08:36;0.47;;;0.43;;
12814;SDS011;6472;52.328;13.070;2023-04-24T10:11:04;2.33;;;0.50;;
12814;SDS011;6472;52.328;13.070;2023-04-24T10:13:33;5.18;;;0.75;;
12814;SDS011;6472;52.328;13.070;2023-04-24T10:16:02;2.83;;;0.65;;
12814;SDS011;6472;52.328;13.070;2023-04-24T10:18:31;0.90;;;0.65;;
12814;SDS011;6472;52.328;13.070;2023-04-24T10:21:00;1.35;;;0.38;;
12814;SDS011;6472;52.328;13.070;2023-04-24T10:23:28;1.52;;;0.50;;
12814;SDS011;6472;52.328;13.070;2023-04-24T10:25:59;0.30;;;0.30;;
12814;SDS011;6472;52.328;13.070;2023-04-24T10:28:28;1.83;;;0.60;;
12814;SDS011;6472;52.328;13.070;2023-04-24T10:30:57;1.52;;;0.40;;
12814;SDS011;6472;52.328;13.070;2023-04-24T10:33:26;1.30;;;0.60;;
12814;SDS011;6472;52.328;13.070;2023-04-24T10:35:55;4.43;;;0.70;;
12814;SDS011;6472;52.328;13.070;2023-04-24T10:38:25;2.70;;;0.57;;
12814;SDS011;6472;52.328;13.070;2023-04-24T10:40:58;2.08;;;0.55;;
12814;SDS011;6472;52.328;13.070;2023-04-24T10:43:35;0.75;;;0.75;;
12814;SDS011;6472;52.328;13.070;2023-04-24T10:46:03;0.45;;;0.45;;
12814;SDS011;6472;52.328;13.070;2023-04-24T10:48:33;0.85;;;0.60;;
12814;SDS011;6472;52.328;13.070;2023-04-24T10:51:01;1.70;;;0.50;;
12814;SDS011;6472;52.328;13.070;2023-04-24T10:53:29;1.85;;;0.40;;
12814;SDS011;6472;52.328;13.070;2023-04-24T10:56:03;0.38;;;0.38;;
12814;SDS011;6472;52.328;13.070;2023-04-24T10:58:36;0.30;;;0.30;;
12814;SDS011;6472;52.328;13.070;2023-04-24T11:01:06;0.32;;;0.32;;
12814;SDS011;6472;52.328;13.070;2023-04-24T11:03:34;0.65;;;0.60;;
12814;SDS011;6472;52.328;13.070;2023-04-24T11:06:04;1.30;;;0.80;;
12814;SDS011;6472;52.328;13.070;2023-04-24T11:08:37;2.35;;;0.63;;
12814;SDS011;6472;52.328;13.070;2023-04-24T11:11:11;0.40;;;0.40;;
12814;SDS011;6472;52.328;13.070;2023-04-24T11:16:28;0.40;;;0.40;;
12814;SDS011;6472;52.328;13.070;2023-04-24T11:19:03;1.85;;;1.15;;
12814;SDS011;6472;52.328;13.070;2023-04-24T11:21:38;0.57;;;0.30;;
12814;SDS011;6472;52.328;13.070;2023-04-24T11:24:24;0.20;;;0.20;;
12814;SDS011;6472;52.328;13.070;2023-04-24T11:26:55;0.38;;;0.38;;
12814;SDS011;6472;52.328;13.070;2023-04-24T11:29:37;0.30;;;0.30;;
12814;SDS011;6472;52.328;13.070;2023-04-24T11:34:54;0.30;;;0.30;;
12814;SDS011;6472;52.328;13.070;2023-04-24T11:37:23;0.30;;;0.30;;
12814;SDS011;6472;52.328;13.070;2023-04-24T11:39:53;1.20;;;0.70;;
12814;SDS011;6472;52.328;13.070;2023-04-24T11:42:26;2.13;;;0.50;;
12814;SDS011;6472;52.328;13.070;2023-04-24T11:44:55;5.38;;;0.60;;
12814;SDS011;6472;52.328;13.070;2023-04-24T11:47:30;0.30;;;0.30;;
12814;SDS011;6472;52.328;13.070;2023-04-24T11:50:00;3.10;;;0.90;;
12814;SDS011;6472;52.328;13.070;2023-04-24T11:52:28;0.30;;;0.30;;
12814;SDS011;6472;52.328;13.070;2023-04-24T11:54:57;8.27;;;1.08;;
12814;SDS011;6472;52.328;13.070;2023-04-24T11:57:27;0.75;;;0.60;;
12814;SDS011;6472;52.328;13.070;2023-04-24T11:59:59;0.45;;;0.40;;
12814;SDS011;6472;52.328;13.070;2023-04-24T12:02:30;1.45;;;0.40;;
12814;SDS011;6472;52.328;13.070;2023-04-24T12:04:58;0.75;;;0.60;;
12814;SDS011;6472;52.328;13.070;2023-04-24T12:07:26;3.33;;;0.70;;
12814;SDS011;6472;52.328;13.070;2023-04-24T12:09:55;0.43;;;0.43;;
12814;SDS011;6472;52.328;13.070;2023-04-24T12:12:27;1.35;;;0.60;;
12814;SDS011;6472;52.328;13.070;2023-04-24T12:14:56;0.80;;;0.80;;
12814;SDS011;6472;52.328;13.070;2023-04-24T12:17:26;0.40;;;0.40;;
12814;SDS011;6472;52.328;13.070;2023-04-24T12:19:58;0.30;;;0.30;;
12814;SDS011;6472;52.328;13.070;2023-04-24T12:22:28;2.75;;;0.50;;
12814;SDS011;6472;52.328;13.070;2023-04-24T12:25:09;0.30;;;0.30;;
12814;SDS011;6472;52.328;13.070;2023-04-24T12:27:39;0.50;;;0.35;;
12814;SDS011;6472;52.328;13.070;2023-04-24T12:30:09;0.28;;;0.28;;
12814;SDS011;6472;52.328;13.070;2023-04-24T12:32:42;0.30;;;0.20;;
12814;SDS011;6472;52.328;13.070;2023-04-24T12:35:11;0.40;;;0.40;;
12814;SDS011;6472;52.328;13.070;2023-04-24T12:37:41;0.30;;;0.30;;
12814;SDS011;6472;52.328;13.070;2023-04-24T12:40:13;0.30;;;0.30;;
12814;SDS011;6472;52.328;13.070;2023-04-24T12:42:43;0.28;;;0.28;;
12814;SDS011;6472;52.328;13.070;2023-04-24T12:45:13;0.30;;;0.30;;
12814;SDS011;6472;52.328;13.070;2023-04-24T12:47:42;0.30;;;0.30;;
12814;SDS011;6472;52.328;13.070;2023-04-24T12:50:11;0.28;;;0.28;;
12814;SDS011;6472;52.328;13.070;2023-04-24T12:52:40;1.35;;;0.60;;
12814;SDS011;6472;52.328;13.070;2023-04-24T12:55:09;6.40;;;1.45;;
12814;SDS011;6472;52.328;13.070;2023-04-24T12:57:38;3.60;;;1.27;;
12814;SDS011;6472;52.328;13.070;2023-04-24T13:00:12;0.80;;;0.60;;
12814;SDS011;6472;52.328;13.070;2023-04-24T13:02:59;4.80;;;1.30;;
12814;SDS011;6472;52.328;13.070;2023-04-24T13:05:27;0.60;;;0.60;;
12814;SDS011;6472;52.328;13.070;2023-04-24T13:07:55;2.78;;;0.40;;
12814;SDS011;6472;52.328;13.070;2023-04-24T13:10:23;12.85;;;1.05;;
12814;SDS011;6472;52.328;13.070;2023-04-24T13:12:51;0.70;;;0.70;;
12814;SDS011;6472;52.328;13.070;2023-04-24T13:15:20;0.52;;;0.40;;
12814;SDS011;6472;52.328;13.070;2023-04-24T13:17:48;1.45;;;0.88;;
12814;SDS011;6472;52.328;13.070;2023-04-24T13:20:17;0.45;;;0.45;;
12814;SDS011;6472;52.328;13.070;2023-04-24T13:22:45;0.70;;;0.60;;
12814;SDS011;6472;52.328;13.070;2023-04-24T13:25:13;1.75;;;0.60;;
12814;SDS011;6472;52.328;13.070;2023-04-24T13:27:43;0.30;;;0.30;;
12814;SDS011;6472;52.328;13.070;2023-04-24T13:30:11;0.75;;;0.50;;
12814;SDS011;6472;52.328;13.070;2023-04-24T13:32:41;0.40;;;0.40;;
12814;SDS011;6472;52.328;13.070;2023-04-24T13:35:09;0.63;;;0.38;;
12814;SDS011;6472;52.328;13.070;2023-04-24T13:37:37;0.60;;;0.60;;
12814;SDS011;6472;52.328;13.070;2023-04-24T13:40:05;1.27;;;0.52;;
12814;SDS011;6472;52.328;13.070;2023-04-24T13:42:34;0.30;;;0.30;;
12814;SDS011;6472;52.328;13.070;2023-04-24T13:45:02;0.88;;;0.60;;
12814;SDS011;6472;52.328;13.070;2023-04-24T13:47:51;3.67;;;1.23;;
12814;SDS011;6472;52.328;13.070;2023-04-24T13:50:20;0.40;;;0.40;;
12814;SDS011;6472;52.328;13.070;2023-04-24T13:52:48;1.02;;;0.52;;
12814;SDS011;6472;52.328;13.070;2023-04-24T13:55:16;3.85;;;0.40;;
12814;SDS011;6472;52.328;13.070;2023-04-24T13:57:44;0.45;;;0.45;;
12814;SDS011;6472;52.328;13.070;2023-04-24T14:00:12;0.63;;;0.45;;
12814;SDS011;6472;52.328;13.070;2023-04-24T14:02:41;1.52;;;0.70;;
12814;SDS011;6472;52.328;13.070;2023-04-24T14:05:12;2.55;;;0.68;;
12814;SDS011;6472;52.328;13.070;2023-04-24T14:07:41;0.38;;;0.38;;
12814;SDS011;6472;52.328;13.070;2023-04-24T14:10:09;1.35;;;0.55;;
12814;SDS011;6472;52.328;13.070;2023-04-24T14:12:37;0.50;;;0.50;;
12814;SDS011;6472;52.328;13.070;2023-04-24T14:15:06;0.50;;;0.50;;
12814;SDS011;6472;52.328;13.070;2023-04-24T14:17:35;0.70;;;0.70;;
12814;SDS011;6472;52.328;13.070;2023-04-24T14:20:04;0.50;;;0.50;;
12814;SDS011;6472;52.328;13.070;2023-04-24T14:22:34;0.63;;;0.63;;
12814;SDS011;6472;52.328;13.070;2023-04-24T14:25:02;1.02;;;0.90;;
12814;SDS011;6472;52.328;13.070;2023-04-24T14:27:31;0.60;;;0.60;;
12814;SDS011;6472;52.328;13.070;2023-04-24T14:30:00;0.55;;;0.55;;
12814;SDS011;6472;52.328;13.070;2023-04-24T14:32:29;0.60;;;0.60;;
12814;SDS011;6472;52.328;13.070;2023-04-24T14:34:57;0.70;;;0.70;;
12814;SDS011;6472;52.328;13.070;2023-04-24T14:37:25;1.85;;;0.60;;
12814;SDS011;6472;52.328;13.070;2023-04-24T14:39:54;1.27;;;0.60;;
12814;SDS011;6472;52.328;13.070;2023-04-24T14:42:42;0.55;;;0.55;;
12814;SDS011;6472;52.328;13.070;2023-04-24T14:45:10;0.57;;;0.57;;
12814;SDS011;6472;52.328;13.070;2023-04-24T14:47:38;0.55;;;0.55;;
12814;SDS011;6472;52.328;13.070;2023-04-24T14:50:07;5.18;;;1.50;;
12814;SDS011;6472;52.328;13.070;2023-04-24T14:52:35;8.88;;;1.10;;
12814;SDS011;6472;52.328;13.070;2023-04-24T14:55:05;5.20;;;0.90;;
12814;SDS011;6472;52.328;13.070;2023-04-24T14:57:34;3.22;;;0.60;;
12814;SDS011;6472;52.328;13.070;2023-04-24T15:00:03;0.55;;;0.55;;
12814;SDS011;6472;52.328;13.070;2023-04-24T15:02:34;2.75;;;0.93;;
12814;SDS011;6472;52.328;13.070;2023-04-24T15:05:06;1.95;;;0.65;;
12814;SDS011;6472;52.328;13.070;2023-04-24T15:07:35;0.80;;;0.80;;